Time;durP1;ratioP1;P1;durP2;ratioP2;P2;SDS_P1;SDS_P2;PMS_P1;PMS_P2;Temp;Humidity;BMP_temperature;BMP_pressure;BME280_temperature;BME280_humidity;BME280_pressure;Samples;Min_cycle;Max_cycle;Signal;HPM_P1;HPM_P2
2021/05/16 00:01:30;;;;;;;40.67;20.50;;;;;;;8.37;91.85;98986.44;1689712;84;20923;-71
2021/05/16 00:03:58;;;;;;;65.10;25.90;;;;;;;8.35;92.06;98996.08;1689780;85;20991;-71
2021/05/16 00:06:26;;;;;;;55.03;25.40;;;;;;;8.34;92.44;98998.01;1689782;85;21481;-71
2021/05/16 00:08:53;;;;;;;59.75;24.57;;;;;;;8.36;92.51;99002.61;1689936;84;20896;-72
2021/05/16 00:11:19;;;;;;;50.92;22.25;;;;;;;8.37;92.45;99001.48;1689742;84;20936;-73
2021/05/16 00:13:48;;;;;;;48.92;20.92;;;;;;;8.34;92.15;99003.48;1689845;84;21625;-72
2021/05/16 00:16:15;;;;;;;48.20;20.48;;;;;;;8.28;92.02;98994.57;1689917;85;20983;-72
2021/05/16 00:18:42;;;;;;;44.38;21.05;;;;;;;8.24;92.05;98991.41;1689899;84;21043;-72
2021/05/16 00:21:09;;;;;;;38.08;18.95;;;;;;;8.21;92.06;98992.84;1689876;85;20999;-72
2021/05/16 00:23:35;;;;;;;31.37;16.23;;;;;;;8.18;91.96;98994.03;1689893;85;20987;-72
2021/05/16 00:26:02;;;;;;;29.55;15.38;;;;;;;8.15;91.99;98994.66;1689891;85;20911;-72
2021/05/16 00:28:28;;;;;;;31.80;15.68;;;;;;;8.13;92.12;98995.53;1689838;84;21067;-72
2021/05/16 00:30:55;;;;;;;30.23;16.50;;;;;;;8.12;92.28;98989.81;1689852;84;22063;-72
2021/05/16 00:33:22;;;;;;;26.27;14.50;;;;;;;8.11;92.29;98986.83;1689815;84;20888;-72
2021/05/16 00:35:49;;;;;;;21.87;13.58;;;;;;;8.08;92.20;98984.19;1689939;85;20974;-72
2021/05/16 00:38:16;;;;;;;25.57;14.65;;;;;;;8.06;92.25;98987.80;1689808;84;21003;-72
2021/05/16 00:40:42;;;;;;;23.92;12.37;;;;;;;8.03;92.22;98987.61;1689957;84;21506;-72
2021/05/16 00:43:09;;;;;;;25.68;13.72;;;;;;;8.00;92.24;98988.23;1689752;84;21108;-72
2021/05/16 00:45:36;;;;;;;25.08;12.88;;;;;;;7.99;92.27;98992.09;1689769;85;21011;-72
2021/05/16 00:48:04;;;;;;;23.12;13.13;;;;;;;7.94;92.27;98991.09;1689804;84;20916;-72
2021/05/16 00:50:43;;;;;;;24.05;13.45;;;;;;;7.92;92.22;98993.89;1689869;85;20927;-72
2021/05/16 00:53:10;;;;;;;20.25;13.35;;;;;;;7.89;92.24;98987.69;1689882;84;20947;-72
2021/05/16 00:55:38;;;;;;;23.02;13.38;;;;;;;7.88;92.25;98981.97;1689749;84;21600;-72
2021/05/16 00:58:07;;;;;;;20.65;12.50;;;;;;;7.85;92.18;98979.86;1689707;85;21592;-73
2021/05/16 01:00:40;;;;;;;17.82;11.78;;;;;;;7.81;92.10;98977.50;1689873;84;21041;-72
2021/05/16 01:03:08;;;;;;;22.42;12.50;;;;;;;7.78;92.22;98976.75;1689224;85;21011;-73
2021/05/16 01:05:36;;;;;;;20.27;12.90;;;;;;;7.76;92.37;98985.27;1689895;85;20991;-73
2021/05/16 01:08:05;;;;;;;17.15;12.43;;;;;;;7.75;92.47;98984.20;1689847;84;21116;-72
2021/05/16 01:10:32;;;;;;;17.05;11.38;;;;;;;7.74;92.70;98983.95;1689709;85;21569;-73
2021/05/16 01:12:59;;;;;;;21.87;11.08;;;;;;;7.71;92.58;98982.66;1691370;84;20893;-73
2021/05/16 01:15:27;;;;;;;15.72;10.48;;;;;;;7.68;92.69;98981.91;1692912;84;20997;-73
2021/05/16 01:17:57;;;;;;;15.53;9.63;;;;;;;7.66;92.72;98984.70;1692776;84;20993;-73
2021/05/16 01:20:31;;;;;;;16.27;10.78;;;;;;;7.63;92.82;98982.84;1692871;84;21703;-73
2021/05/16 01:23:09;;;;;;;17.00;10.63;;;;;;;7.62;92.86;98986.69;1692741;84;20968;-73
2021/05/16 01:25:44;;;;;;;15.43;10.23;;;;;;;7.60;92.84;98979.36;1692941;84;20968;-71
2021/05/16 01:28:13;;;;;;;15.75;9.90;;;;;;;7.58;92.84;98980.78;1667242;84;20937;-71
2021/05/16 01:30:40;;;;;;;14.53;9.98;;;;;;;7.57;92.78;98984.07;1692850;84;20897;-71
2021/05/16 01:33:07;;;;;;;17.98;9.33;;;;;;;7.54;92.94;98982.52;1692848;84;21446;-71
2021/05/16 01:35:35;;;;;;;12.60;8.95;;;;;;;7.54;93.14;98982.52;1692670;84;21036;-72
2021/05/16 01:38:03;;;;;;;20.10;9.88;;;;;;;7.54;93.17;98981.96;1692823;84;20937;-71
2021/05/16 01:40:30;;;;;;;16.00;9.53;;;;;;;7.53;93.05;98983.63;1692847;84;20912;-71
2021/05/16 01:42:59;;;;;;;18.57;10.18;;;;;;;7.52;93.01;98987.48;1692285;84;21622;-74
2021/05/16 01:45:27;;;;;;;20.40;10.58;;;;;;;7.50;93.03;98989.75;1692865;84;21472;-73
2021/05/16 01:47:57;;;;;;;15.90;10.68;;;;;;;7.49;93.04;98990.86;1692695;84;20941;-73
2021/05/16 01:50:27;;;;;;;19.25;11.25;;;;;;;7.48;93.04;98993.34;1692763;84;21055;-73
2021/05/16 01:52:55;;;;;;;19.95;10.98;;;;;;;7.47;93.12;99004.02;1667139;84;21613;-73
2021/05/16 01:55:21;;;;;;;21.00;11.70;;;;;;;7.44;93.18;98999.98;1692916;84;20901;-72
2021/05/16 01:57:49;;;;;;;19.92;12.33;;;;;;;7.43;93.18;98995.63;1692829;84;21098;-72
2021/05/16 02:00:36;;;;;;;21.55;11.95;;;;;;;7.41;93.26;98999.78;1692777;84;20936;-72
2021/05/16 02:03:04;;;;;;;25.62;13.98;;;;;;;7.38;93.33;99001.20;1692821;84;21023;-73
2021/05/16 02:05:33;;;;;;;24.60;12.98;;;;;;;7.35;93.42;99010.02;1692619;84;20925;-73
2021/05/16 02:08:02;;;;;;;22.32;13.75;;;;;;;7.34;93.55;99010.32;1692797;84;20933;-73
2021/05/16 02:10:29;;;;;;;24.72;12.30;;;;;;;7.33;93.67;99014.16;1667515;84;21091;-73
2021/05/16 02:12:57;;;;;;;25.27;14.28;;;;;;;7.33;93.70;99020.99;1692480;84;21591;-73
2021/05/16 02:15:25;;;;;;;26.48;13.68;;;;;;;7.33;93.71;99023.72;1692825;84;20957;-73
2021/05/16 02:17:55;;;;;;;22.17;12.50;;;;;;;7.30;93.55;99027.88;1692768;84;21520;-73
2021/05/16 02:20:20;;;;;;;20.85;12.40;;;;;;;7.26;93.49;99029.05;1692809;84;20961;-73
2021/05/16 02:22:48;;;;;;;23.10;14.23;;;;;;;7.25;93.49;99032.89;1692767;84;21091;-73
2021/05/16 02:25:15;;;;;;;21.33;12.33;;;;;;;7.26;94.29;99033.14;1692677;84;20976;-73
2021/05/16 02:27:47;;;;;;;16.27;12.37;;;;;;;7.37;95.71;99032.92;1684250;84;20964;-73
2021/05/16 02:30:15;;;;;;;16.45;11.57;;;;;;;7.67;98.01;99040.39;1671517;84;20928;-73
2021/05/16 02:32:42;;;;;;;19.27;12.18;;;;;;;7.67;98.01;99040.39;1664860;85;21007;-73
2021/05/16 02:35:11;;;;;;;17.75;13.62;;;;;;;7.82;98.76;99047.43;1664939;85;21609;-72
2021/05/16 02:37:42;;;;;;;22.02;14.45;;;;;;;7.93;99.50;99044.15;1658163;86;20896;-71
2021/05/16 02:40:10;;;;;;;18.95;13.05;;;;;;;8.06;100.00;99041.66;1664831;85;20889;-72
2021/05/16 02:42:39;;;;;;;19.23;12.00;;;;;;;8.13;100.00;99046.91;1664791;85;21004;-71
2021/05/16 02:45:07;;;;;;;22.75;12.90;;;;;;;8.18;100.00;99052.81;1664836;85;20948;-72
2021/05/16 02:47:34;;;;;;;16.85;11.15;;;;;;;8.22;100.00;99053.80;1664779;86;21952;-72
2021/05/16 02:50:01;;;;;;;23.05;12.53;;;;;;;8.26;100.00;99062.44;1664838;86;20936;-72
2021/05/16 02:52:29;;;;;;;22.27;13.20;;;;;;;8.31;100.00;99057.96;1664512;85;21510;-73
2021/05/16 02:54:57;;;;;;;16.60;12.30;;;;;;;8.33;100.00;99059.30;1664712;85;20965;-72
2021/05/16 02:57:23;;;;;;;15.25;12.07;;;;;;;8.33;99.88;99060.66;1664924;85;20944;-71
2021/05/16 02:59:50;;;;;;;20.02;11.73;;;;;;;8.34;99.69;99064.20;1664863;85;21492;-72
2021/05/16 03:02:17;;;;;;;17.70;10.93;;;;;;;8.36;99.52;99071.55;1664793;86;21004;-73
2021/05/16 03:04:44;;;;;;;15.13;11.10;;;;;;;8.38;99.61;99065.20;1639771;86;21515;-73
2021/05/16 03:07:11;;;;;;;17.75;11.05;;;;;;;8.42;99.64;99060.16;1664805;85;20932;-73
2021/05/16 03:09:38;;;;;;;12.80;10.35;;;;;;;8.48;99.66;99050.70;1664744;86;20962;-72
2021/05/16 03:12:09;;;;;;;16.80;11.08;;;;;;;8.54;99.59;99054.91;1664719;85;20932;-72
2021/05/16 03:14:37;;;;;;;18.15;11.43;;;;;;;8.57;99.41;99048.82;1661884;85;20980;-72
2021/05/16 03:17:03;;;;;;;18.07;10.32;;;;;;;8.61;99.32;99050.36;1661872;86;20936;-73
2021/05/16 03:19:32;;;;;;;20.40;11.43;;;;;;;8.66;99.22;99052.16;1661811;86;21452;-74
2021/05/16 03:22:00;;;;;;;16.27;10.58;;;;;;;8.71;99.14;99049.25;1661948;85;21103;-74
2021/05/16 03:24:28;;;;;;;16.20;11.83;;;;;;;8.75;99.16;99047.50;1661903;86;21085;-71
2021/05/16 03:26:55;;;;;;;21.00;12.25;;;;;;;8.83;99.35;99050.27;1661745;86;21654;-73
2021/05/16 03:29:21;;;;;;;19.27;13.03;;;;;;;8.92;99.45;99046.20;1661878;86;20901;-73
2021/05/16 03:31:49;;;;;;;18.07;13.32;;;;;;;9.01;99.54;99051.15;1661848;86;20956;-73
2021/05/16 03:34:16;;;;;;;27.80;13.85;;;;;;;9.10;99.57;99041.59;1661836;86;20972;-72
2021/05/16 03:36:43;;;;;;;19.15;13.68;;;;;;;9.20;99.57;99047.58;1662894;85;21766;-73
2021/05/16 03:39:09;;;;;;;22.37;12.93;;;;;;;9.31;99.72;99046.69;1688928;85;20946;-74
2021/05/16 03:41:36;;;;;;;18.12;12.50;;;;;;;9.43;99.79;99047.44;1689242;85;21016;-81
2021/05/16 03:44:03;;;;;;;26.30;14.45;;;;;;;9.55;99.78;99044.88;1633876;85;20986;-72
2021/05/16 03:46:29;;;;;;;20.12;13.40;;;;;;;9.68;99.74;99047.23;1687821;84;21619;-72
2021/05/16 03:48:56;;;;;;;22.48;15.05;;;;;;;9.80;99.75;99048.20;1687860;85;21849;-71
2021/05/16 03:51:25;;;;;;;23.22;14.10;;;;;;;9.94;99.82;99046.08;1688070;84;20938;-71
2021/05/16 03:53:52;;;;;;;25.35;14.85;;;;;;;10.08;99.87;99041.80;1687852;85;21009;-73
2021/05/16 03:56:18;;;;;;;26.70;16.05;;;;;;;10.22;99.77;99038.91;1687820;85;21631;-69
2021/05/16 03:58:45;;;;;;;24.57;16.67;;;;;;;10.35;99.66;99040.66;1688636;85;21031;-70
2021/05/16 04:01:13;;;;;;;26.93;15.53;;;;;;;10.49;99.48;99034.38;1688294;84;21100;-72
2021/05/16 04:03:39;;;;;;;19.77;13.62;;;;;;;10.63;99.33;99037.48;1688622;85;21641;-71
2021/05/16 04:06:06;;;;;;;19.45;11.85;;;;;;;10.77;99.41;99038.89;1688530;85;20999;-70
2021/05/16 04:08:32;;;;;;;17.12;10.45;;;;;;;10.91;99.33;99036.73;1688273;85;21708;-70
2021/05/16 04:10:59;;;;;;;18.10;9.80;;;;;;;11.06;99.09;99031.22;1688852;85;20914;-70
2021/05/16 04:13:27;;;;;;;12.03;7.60;;;;;;;11.20;98.71;99033.73;1686146;84;21030;-70
2021/05/16 04:15:53;;;;;;;14.33;7.25;;;;;;;11.35;97.90;99038.66;1688790;84;20946;-70
2021/05/16 04:18:20;;;;;;;9.80;7.35;;;;;;;11.52;97.10;99033.05;1689053;85;20995;-70
2021/05/16 04:20:47;;;;;;;9.15;7.28;;;;;;;11.74;95.88;99039.33;1688890;84;21692;-70
2021/05/16 04:23:14;;;;;;;10.13;6.28;;;;;;;11.96;94.67;99031.34;1689075;84;20874;-69
2021/05/16 04:25:40;;;;;;;11.53;6.85;;;;;;;12.11;93.79;99026.02;1688419;85;21053;-70
2021/05/16 04:28:07;;;;;;;12.88;7.00;;;;;;;12.27;93.01;99026.16;1688338;84;21016;-70
2021/05/16 04:30:37;;;;;;;10.90;7.17;;;;;;;12.43;91.93;99029.07;1688356;85;20920;-70
2021/05/16 04:33:04;;;;;;;10.00;7.20;;;;;;;12.62;91.46;99023.03;1688464;85;20910;-70
2021/05/16 04:35:31;;;;;;;9.08;7.08;;;;;;;12.77;91.11;99027.27;1688425;84;20913;-70
2021/05/16 04:37:57;;;;;;;18.80;8.83;;;;;;;12.95;90.93;99029.81;1688481;85;21031;-72
2021/05/16 04:40:23;;;;;;;13.20;6.47;;;;;;;13.09;90.51;99035.22;1688284;85;20914;-71
2021/05/16 04:42:50;;;;;;;11.33;7.40;;;;;;;13.26;90.19;99028.70;1688259;84;21531;-73
2021/05/16 04:45:17;;;;;;;10.50;6.30;;;;;;;13.42;89.61;99028.20;1688414;85;20988;-71
2021/05/16 04:47:44;;;;;;;18.48;6.55;;;;;;;13.61;89.11;99024.83;1688454;85;20921;-72
2021/05/16 04:50:13;;;;;;;7.33;6.30;;;;;;;13.78;87.48;99022.38;1688301;84;21082;-74
2021/05/16 04:52:40;;;;;;;9.00;7.15;;;;;;;13.94;86.69;99026.55;1688330;84;21456;-72
2021/05/16 04:55:07;;;;;;;11.18;7.85;;;;;;;14.08;86.00;99022.82;1688323;85;20989;-71
2021/05/16 04:57:34;;;;;;;8.13;6.33;;;;;;;14.22;85.09;99021.84;1688368;84;20949;-71
2021/05/16 05:00:01;;;;;;;13.25;7.17;;;;;;;14.33;84.21;99010.52;1688394;85;20927;-71
2021/05/16 05:02:27;;;;;;;7.03;6.33;;;;;;;14.48;84.08;99014.45;1688421;84;21603;-72
2021/05/16 05:04:55;;;;;;;9.70;6.80;;;;;;;14.63;83.49;99012.30;1688374;84;20937;-71
2021/05/16 05:07:21;;;;;;;8.90;6.83;;;;;;;14.80;82.03;99018.05;1688328;84;21504;-73
2021/05/16 05:09:48;;;;;;;11.93;7.95;;;;;;;14.95;80.63;99021.98;1688385;85;20989;-72
2021/05/16 05:12:15;;;;;;;15.43;9.00;;;;;;;15.06;80.29;99023.81;1688265;83;21515;-69
2021/05/16 05:14:41;;;;;;;11.28;8.45;;;;;;;15.21;80.08;99027.72;1688200;84;20990;-69
2021/05/16 05:17:09;;;;;;;13.30;8.23;;;;;;;15.34;79.43;99015.97;1688272;85;20993;-70
2021/05/16 05:19:35;;;;;;;11.25;8.83;;;;;;;15.43;78.12;99007.70;1688213;84;21484;-70
2021/05/16 05:22:02;;;;;;;11.30;8.25;;;;;;;15.52;77.90;99012.45;1685357;84;21040;-71
2021/05/16 05:24:29;;;;;;;9.03;7.08;;;;;;;15.61;77.77;99005.91;1663715;85;21063;-72
2021/05/16 05:26:57;;;;;;;8.68;6.40;;;;;;;15.69;77.17;99007.09;1659790;86;21855;-72
2021/05/16 05:29:23;;;;;;;7.05;5.65;;;;;;;15.79;76.69;99007.91;1660799;86;21040;-71
2021/05/16 05:31:49;;;;;;;11.35;7.75;;;;;;;15.90;76.50;99006.75;1660880;86;21123;-71
2021/05/16 05:34:16;;;;;;;12.65;7.03;;;;;;;16.03;75.27;99010.17;1660659;86;21008;-71
2021/05/16 05:36:42;;;;;;;7.30;5.15;;;;;;;16.15;74.72;99015.56;1661616;86;21486;-72
2021/05/16 05:39:09;;;;;;;6.10;4.92;;;;;;;16.25;72.11;99005.83;1661497;86;21074;-73
2021/05/16 05:41:36;;;;;;;7.28;6.37;;;;;;;16.32;72.31;99001.23;1661533;86;20958;-73
2021/05/16 05:44:04;;;;;;;7.45;5.80;;;;;;;16.46;72.26;99002.08;1661738;86;20985;-71
2021/05/16 05:46:30;;;;;;;9.05;5.70;;;;;;;16.58;72.30;99001.11;1661906;86;21484;-70
2021/05/16 05:48:56;;;;;;;6.55;4.72;;;;;;;16.68;70.06;98997.75;1661959;86;20981;-70
2021/05/16 05:51:23;;;;;;;7.47;5.47;;;;;;;16.78;69.16;99001.27;1662003;86;21122;-70
2021/05/16 05:53:50;;;;;;;8.55;4.45;;;;;;;16.89;69.91;99001.45;1661913;86;20912;-70
2021/05/16 05:56:16;;;;;;;6.65;4.75;;;;;;;17.01;67.34;98997.09;1661955;86;20893;-70
2021/05/16 05:58:43;;;;;;;6.62;5.35;;;;;;;17.11;66.92;98989.53;1662019;86;20928;-70
2021/05/16 06:01:09;;;;;;;15.88;5.97;;;;;;;17.22;67.65;98996.63;1662011;86;21080;-71
2021/05/16 06:03:35;;;;;;;7.53;5.22;;;;;;;17.31;67.64;98999.94;1661844;86;21691;-71
2021/05/16 06:06:02;;;;;;;8.13;5.85;;;;;;;17.40;67.00;98996.28;1661906;86;20874;-70
2021/05/16 06:08:28;;;;;;;5.83;5.22;;;;;;;17.50;67.29;99001.98;1661955;86;20985;-71
2021/05/16 06:10:54;;;;;;;6.58;4.90;;;;;;;17.59;64.65;98998.14;1662082;86;21650;-71
2021/05/16 06:13:21;;;;;;;6.37;4.47;;;;;;;17.69;63.40;99001.09;1661988;86;21555;-70
2021/05/16 06:15:47;;;;;;;9.98;4.87;;;;;;;17.78;63.96;99005.77;1663010;86;21382;-71
2021/05/16 06:18:14;;;;;;;7.55;4.33;;;;;;;17.89;64.47;99005.91;1663123;86;20921;-71
2021/05/16 06:20:40;;;;;;;6.28;4.45;;;;;;;18.01;63.41;99009.01;1663089;86;21468;-71
2021/05/16 06:23:10;;;;;;;3.67;3.08;;;;;;;18.12;62.83;99009.34;1663077;85;20980;-70
2021/05/16 06:25:35;;;;;;;4.60;2.98;;;;;;;18.23;60.90;99010.06;1663120;86;20992;-71
2021/05/16 06:28:02;;;;;;;3.90;2.45;;;;;;;18.31;60.27;99012.55;1663100;86;21598;-71
2021/05/16 06:30:28;;;;;;;4.92;1.80;;;;;;;18.40;58.45;99015.02;1663075;86;20965;-71
2021/05/16 06:32:55;;;;;;;2.30;2.00;;;;;;;18.48;58.51;99011.14;1663097;86;20996;-70
2021/05/16 06:35:22;;;;;;;4.80;2.25;;;;;;;18.56;57.74;99016.16;1663126;85;20900;-71
2021/05/16 06:37:49;;;;;;;3.77;1.57;;;;;;;18.62;58.06;99011.88;1663257;86;20991;-71
2021/05/16 06:40:16;;;;;;;2.17;1.80;;;;;;;18.72;57.52;99012.57;1663144;86;21417;-72
2021/05/16 06:42:43;;;;;;;2.72;1.90;;;;;;;18.83;58.57;99010.69;1663171;86;21455;-72
2021/05/16 06:45:11;;;;;;;3.67;1.82;;;;;;;18.94;57.58;99012.97;1663054;86;20902;-73
2021/05/16 06:47:38;;;;;;;7.53;6.30;;;;;;;19.06;56.58;99009.10;1663146;86;21016;-72
2021/05/16 06:50:07;;;;;;;7.87;4.62;;;;;;;19.13;56.73;99009.92;1663131;86;20929;-72
2021/05/16 06:52:33;;;;;;;3.10;2.50;;;;;;;19.22;58.04;99006.81;1663160;86;21089;-72
2021/05/16 06:55:00;;;;;;;4.70;2.60;;;;;;;19.36;57.77;99006.91;1662989;85;21029;-72
2021/05/16 06:57:27;;;;;;;5.17;2.35;;;;;;;19.48;57.55;99012.77;1663108;86;20964;-72
2021/05/16 06:59:53;;;;;;;4.25;3.67;;;;;;;19.56;57.47;99010.85;1673282;84;20945;-77
2021/05/16 07:02:19;;;;;;;5.10;3.25;;;;;;;19.58;57.24;99011.27;1679761;84;21543;-73
2021/05/16 07:04:48;;;;;;;4.15;2.65;;;;;;;19.60;57.86;99009.69;1690877;84;21070;-72
2021/05/16 07:07:14;;;;;;;7.05;2.33;;;;;;;19.70;58.27;99010.31;1691029;84;20932;-74
2021/05/16 07:09:42;;;;;;;5.65;2.35;;;;;;;19.84;56.38;99005.41;1688887;84;20862;-74
2021/05/16 07:12:11;;;;;;;4.10;2.37;;;;;;;19.92;56.77;99008.44;1690996;84;21008;-74
2021/05/16 07:14:39;;;;;;;5.50;2.42;;;;;;;19.97;56.81;99015.62;1690831;84;21065;-75
2021/05/16 07:17:05;;;;;;;5.15;2.70;;;;;;;20.07;54.57;99014.88;1673424;84;21476;-73
2021/05/16 07:19:33;;;;;;;3.55;2.47;;;;;;;20.13;55.36;99014.70;1663041;85;20897;-73
2021/05/16 07:22:00;;;;;;;7.00;2.17;;;;;;;20.17;54.90;99018.89;1663209;85;20989;-71
2021/05/16 07:24:26;;;;;;;3.75;1.70;;;;;;;20.22;53.78;99012.94;1662998;86;21004;-71
2021/05/16 07:26:53;;;;;;;4.50;1.50;;;;;;;20.27;54.85;99016.11;1663118;86;20900;-70
2021/05/16 07:29:19;;;;;;;3.10;1.72;;;;;;;20.43;52.62;99014.40;1682498;84;21574;-71
2021/05/16 07:31:46;;;;;;;2.55;1.87;;;;;;;20.52;50.48;99007.05;1690925;84;20934;-72
2021/05/16 07:34:13;;;;;;;2.95;1.17;;;;;;;20.56;49.20;99000.89;1691007;84;20906;-72
2021/05/16 07:36:39;;;;;;;1.90;1.47;;;;;;;20.59;49.84;99003.68;1690965;84;20985;-71
2021/05/16 07:39:05;;;;;;;2.40;1.12;;;;;;;20.65;50.41;99002.10;1691091;84;21515;-72
2021/05/16 07:41:32;;;;;;;3.70;1.60;;;;;;;20.75;49.89;98998.53;1690992;84;21047;-71
2021/05/16 07:43:58;;;;;;;1.52;1.00;;;;;;;20.85;49.00;98998.31;1689919;84;21008;-72
2021/05/16 07:46:25;;;;;;;4.42;1.00;;;;;;;20.96;47.72;98999.71;1675343;84;20913;-70
2021/05/16 07:48:51;;;;;;;2.42;0.70;;;;;;;21.02;48.40;99000.31;1663151;86;20945;-72
2021/05/16 07:51:19;;;;;;;1.52;0.90;;;;;;;21.12;46.81;98996.52;1665961;84;21558;-73
2021/05/16 07:53:46;;;;;;;4.70;0.90;;;;;;;21.19;47.60;98995.13;1675475;84;21081;-73
2021/05/16 07:56:13;;;;;;;3.75;0.80;;;;;;;21.28;49.01;98997.73;1673197;84;20938;-72
2021/05/16 07:58:40;;;;;;;1.45;0.60;;;;;;;21.42;48.30;99000.48;1690892;84;20899;-73
2021/05/16 08:01:06;;;;;;;0.80;0.55;;;;;;;21.57;45.67;98995.67;1690873;84;21040;-71
2021/05/16 08:03:33;;;;;;;9.05;0.80;;;;;;;21.68;46.20;98990.85;1691032;84;20897;-72
2021/05/16 08:05:59;;;;;;;2.33;0.80;;;;;;;21.86;46.40;98991.40;1666803;84;21592;-73
2021/05/16 08:08:26;;;;;;;4.50;0.60;;;;;;;22.15;46.13;98992.08;1663021;85;21550;-73
2021/05/16 08:10:54;;;;;;;3.92;0.80;;;;;;;22.39;42.52;98991.95;1663116;85;20893;-72
2021/05/16 08:13:20;;;;;;;4.20;0.82;;;;;;;22.60;44.09;98997.20;1662014;86;21622;-73
2021/05/16 08:15:46;;;;;;;2.92;0.60;;;;;;;22.86;43.49;98991.66;1662071;85;21111;-72
2021/05/16 08:18:13;;;;;;;4.37;0.78;;;;;;;23.10;42.96;98994.86;1688544;85;21073;-72
2021/05/16 08:20:39;;;;;;;1.10;0.57;;;;;;;23.25;42.28;98996.91;1689644;85;21012;-72
2021/05/16 08:23:06;;;;;;;0.88;0.60;;;;;;;23.43;41.75;98987.73;1689587;85;20994;-73
2021/05/16 08:25:34;;;;;;;0.57;0.50;;;;;;;23.61;42.26;98995.98;1689525;85;21494;-71
2021/05/16 08:28:00;;;;;;;2.87;0.50;;;;;;;23.77;39.89;98986.98;1689741;83;20901;-71
2021/05/16 08:30:28;;;;;;;2.02;0.95;;;;;;;23.85;40.96;98987.87;1689896;84;20988;-71
2021/05/16 08:32:55;;;;;;;1.60;0.90;;;;;;;24.11;40.80;98987.77;1689812;85;20960;-70
2021/05/16 08:35:24;;;;;;;0.98;0.60;;;;;;;24.42;41.00;98991.97;1689790;85;20917;-70
2021/05/16 08:37:50;;;;;;;2.87;0.68;;;;;;;24.62;40.41;98992.88;1689796;85;20905;-71
2021/05/16 08:40:17;;;;;;;3.58;0.60;;;;;;;24.66;39.15;98994.42;1689519;84;20957;-74
2021/05/16 08:42:44;;;;;;;4.58;0.75;;;;;;;24.59;39.24;98989.52;1671971;85;21049;-71
2021/05/16 08:45:13;;;;;;;4.80;0.78;;;;;;;24.63;39.68;98986.84;1689356;85;21543;-72
2021/05/16 08:47:43;;;;;;;1.60;0.95;;;;;;;24.72;38.86;98987.72;1687297;84;20962;-73
2021/05/16 08:50:13;;;;;;;2.95;0.90;;;;;;;24.72;39.58;98991.93;1681387;85;20996;-72
2021/05/16 08:52:41;;;;;;;11.90;0.95;;;;;;;24.80;39.15;98979.37;1664639;85;20909;-76
2021/05/16 08:55:08;;;;;;;1.45;0.72;;;;;;;25.03;38.46;98980.62;1661968;86;21088;-71
2021/05/16 08:57:35;;;;;;;1.10;0.70;;;;;;;25.24;38.90;98976.05;1661909;86;20912;-75
2021/05/16 09:00:08;;;;;;;2.58;0.88;;;;;;;25.32;37.56;98970.48;1662043;85;21005;-74
2021/05/16 09:03:00;;;;;;;2.22;1.20;;;;;;;25.33;37.67;98969.27;1661866;86;21031;-75
2021/05/16 09:05:29;;;;;;;3.47;0.70;;;;;;;25.39;37.81;98961.92;1662162;86;21012;-74
2021/05/16 09:08:00;;;;;;;2.00;0.97;;;;;;;25.48;36.71;98960.72;1663582;85;21000;-69
2021/05/16 09:10:27;;;;;;;4.10;0.78;;;;;;;25.60;36.61;98956.48;1662312;86;21008;-67
2021/05/16 09:13:11;;;;;;;3.62;0.75;;;;;;;25.68;36.91;98955.77;1661990;85;20912;-72
2021/05/16 09:15:38;;;;;;;2.58;1.00;;;;;;;25.74;34.14;98954.04;1661667;85;20952;-68
2021/05/16 09:18:04;;;;;;;1.65;0.90;;;;;;;25.74;35.13;98955.45;1668971;85;21095;-73
2021/05/16 09:20:31;;;;;;;7.00;1.30;;;;;;;25.80;35.11;98949.50;1673145;85;21023;-71
2021/05/16 09:22:58;;;;;;;1.72;0.90;;;;;;;25.95;35.45;98948.78;1661363;86;21007;-71
2021/05/16 09:25:30;;;;;;;1.02;0.50;;;;;;;25.94;35.26;98948.59;1678796;85;21637;-70
2021/05/16 09:28:14;;;;;;;0.93;0.60;;;;;;;25.92;35.68;98948.85;1661342;85;21054;-84
2021/05/16 09:30:41;;;;;;;2.08;0.80;;;;;;;25.99;35.61;98950.90;1684643;85;20969;-77
2021/05/16 09:33:13;;;;;;;1.32;0.50;;;;;;;26.18;35.70;98945.05;1687890;84;20941;-76
2021/05/16 09:35:47;;;;;;;0.72;0.50;;;;;;;26.29;35.25;98938.56;1687774;84;20969;-74
2021/05/16 09:38:19;;;;;;;4.45;0.70;;;;;;;26.40;34.54;98941.17;1687994;85;20873;-74
2021/05/16 09:40:51;;;;;;;0.62;0.60;;;;;;;26.44;33.43;98946.72;1687776;84;21096;-79
2021/05/16 09:43:23;;;;;;;0.93;0.70;;;;;;;26.45;35.93;98945.48;1688444;85;21634;-74
2021/05/16 09:46:05;;;;;;;0.85;0.42;;;;;;;26.61;32.59;98951.11;1688298;84;20846;-73
2021/05/16 09:48:39;;;;;;;2.12;0.68;;;;;;;26.49;31.79;98949.81;1688229;85;21052;-75
2021/05/16 09:51:19;;;;;;;1.12;0.60;;;;;;;26.40;32.62;98938.36;1687948;85;21028;-75
2021/05/16 09:54:07;;;;;;;1.27;0.60;;;;;;;26.52;33.10;98939.70;1672594;85;21103;-74
2021/05/16 09:56:43;;;;;;;0.80;0.60;;;;;;;26.68;33.18;98939.69;1660252;86;21096;-75
2021/05/16 09:59:11;;;;;;;1.90;0.70;;;;;;;26.80;34.00;98933.36;1660793;86;21817;-75
2021/05/16 10:01:38;;;;;;;6.42;1.12;;;;;;;26.85;32.18;98939.08;1666051;85;21032;-75
2021/05/16 10:04:06;;;;;;;2.77;0.90;;;;;;;26.89;33.32;98929.31;1673185;85;21095;-75
2021/05/16 10:06:33;;;;;;;1.52;0.90;;;;;;;27.04;33.01;98925.55;1663885;84;21078;-74
2021/05/16 10:09:01;;;;;;;1.05;0.75;;;;;;;27.21;33.35;98915.80;1675905;84;20925;-75
2021/05/16 10:11:30;;;;;;;0.60;0.40;;;;;;;27.27;32.03;98917.47;1689780;84;21088;-73
2021/05/16 10:14:16;;;;;;;1.05;0.78;;;;;;;27.06;32.81;98922.28;1689692;84;20980;-73
2021/05/16 10:16:46;;;;;;;0.55;0.53;;;;;;;26.99;32.76;98923.26;1690755;84;21561;-75
2021/05/16 10:19:16;;;;;;;3.67;0.90;;;;;;;27.04;33.12;98921.32;1690995;84;21010;-75
2021/05/16 10:21:43;;;;;;;1.07;0.80;;;;;;;27.13;32.33;98910.22;1691021;84;20925;-75
2021/05/16 10:24:15;;;;;;;3.70;1.52;;;;;;;27.09;34.66;98907.32;1667244;84;21052;-75
2021/05/16 10:26:42;;;;;;;3.35;1.77;;;;;;;26.99;33.92;98903.55;1690831;84;20873;-74
2021/05/16 10:29:10;;;;;;;2.20;0.70;;;;;;;26.93;34.73;98894.80;1691085;84;20917;-77
2021/05/16 10:31:46;;;;;;;1.75;0.93;;;;;;;27.07;33.71;98900.72;1691019;84;21013;-73
2021/05/16 10:34:35;;;;;;;1.82;0.60;;;;;;;27.24;34.44;98900.05;1691095;84;21448;-74
2021/05/16 10:37:03;;;;;;;3.87;1.80;;;;;;;27.47;33.49;98895.58;1684213;84;21085;-75
2021/05/16 10:39:45;;;;;;;1.87;0.70;;;;;;;27.67;32.06;98884.17;1675292;84;21634;-75
2021/05/16 10:42:16;;;;;;;6.47;4.58;;;;;;;27.59;32.62;98889.84;1663101;86;20937;-74
2021/05/16 10:45:15;;;;;;;6.50;4.22;;;;;;;27.38;32.54;98887.59;1665792;84;20969;-74
2021/05/16 10:47:53;;;;;;;3.10;2.02;;;;;;;27.07;33.65;98887.25;1663001;86;20877;-74
2021/05/16 10:50:29;;;;;;;2.22;1.50;;;;;;;26.81;33.58;98885.66;1662538;86;21147;-75
2021/05/16 10:53:19;;;;;;;8.25;4.25;;;;;;;26.74;32.43;98891.47;1663157;86;21036;-75
2021/05/16 10:55:50;;;;;;;3.30;1.60;;;;;;;26.48;32.98;98880.68;1663194;86;21043;-76
2021/05/16 10:58:42;;;;;;;4.40;1.55;;;;;;;26.06;35.97;98876.02;1663163;86;20956;-74
2021/05/16 11:01:18;;;;;;;7.67;4.65;;;;;;;25.87;35.80;98877.66;1663268;86;21005;-76
2021/05/16 11:03:57;;;;;;;2.65;1.90;;;;;;;25.64;35.54;98877.94;1663147;86;21112;-75
2021/05/16 11:06:40;;;;;;;4.83;2.77;;;;;;;25.37;34.70;98863.23;1664119;84;20921;-76
2021/05/16 11:09:11;;;;;;;3.70;2.02;;;;;;;25.16;36.33;98865.05;1669662;84;20925;-77
2021/05/16 11:11:53;;;;;;;12.55;3.87;;;;;;;25.12;37.56;98865.73;1666840;84;20992;-76
2021/05/16 11:14:26;;;;;;;11.85;5.17;;;;;;;25.40;37.95;98867.20;1669123;84;20921;-75
2021/05/16 11:17:01;;;;;;;11.38;6.47;;;;;;;25.83;34.88;98867.11;1691075;84;21043;-75
2021/05/16 11:19:31;;;;;;;10.63;4.37;;;;;;;26.20;35.33;98853.98;1664769;84;21012;-73
2021/05/16 11:22:09;;;;;;;32.20;19.62;;;;;;;26.63;33.72;98848.72;1691794;84;20949;-75
2021/05/16 11:24:44;;;;;;;2.02;1.60;;;;;;;26.88;33.57;98845.27;1692502;84;20996;-74
2021/05/16 11:27:28;;;;;;;3.22;2.70;;;;;;;27.14;32.75;98837.77;1693016;84;20912;-74
2021/05/16 11:30:07;;;;;;;3.17;0.78;;;;;;;27.48;33.17;98837.97;1692881;84;21084;-75
2021/05/16 11:32:34;;;;;;;5.60;1.30;;;;;;;27.62;30.79;98839.61;1692960;84;21541;-74
2021/05/16 11:35:08;;;;;;;6.87;1.45;;;;;;;27.25;31.03;98840.42;1692982;84;20983;-72
2021/05/16 11:37:35;;;;;;;5.08;1.20;;;;;;;26.84;31.68;98846.77;1692891;84;20954;-76